Spring Garden, AL

3:15 PM CDT on July 28, 2014 (GMT -0500)
Hokes Bluff (KALHOKES2) Elev 574 ft | 33.99 °N, 85.81 °W | Change Station

Current weather conditions updated 31 seconds ago

Clear
Clear
89.4 °F
Feels Like 126 °F
N
3.7
Wind Variable Wind from West

Today is forecast to be Cooler than yesterday.

Today
High -- | Low -- °F
--% Chance of Precip.
Yesterday
High -- | Low -- °F
Precip. -- in
5:50 AM 7:46 PM
Waxing Crescent, 3% visible
Pressure 29.95 in
Visibility 10.0 miles
Clouds Clear
Heat Index 126 °F
Dew Point 89 °F
Humidity 98%
Rainfall 0.00 in
Snow Depth Not available.
UV 10 out of 12
Pollen 6.20 out of 12
Air Quality Not available.
Flu Activity Not available.
METAR KGAD 281935Z 30011G17KT 10SM CLR 31/16 A2995 RMK AO1 WSHFT 59

More Conditions Fewer Conditions

Pressure 29.95 in
Visibility 10.0 miles
Clouds Clear
Heat Index 126 °F
Dew Point 89 °F
Humidity 98%
Rainfall 0.00 in
Snow Depth Not available.
UV 10 out of 12
Pollen 6.20 out of 12
Air Quality Not available.
Flu Activity Not available.
METAR KGAD 281935Z 30011G17KT 10SM CLR 31/16 A2995 RMK AO1 WSHFT 59

More Conditions Fewer Conditions

10-Day Weather Forecast

Almanac

Astronomy

Jul. 28, 2014 Rise Set
Actual Time 5:50 AM CDT 7:46 PM CDT
Civil Twilight 5:23 AM CDT 8:13 PM CDT
Nautical Twilight 4:49 AM CDT 8:47 PM CDT
Astronomical Twilight 4:13 AM CDT 9:22 PM CDT
Moon 7:24 AM CDT 8:35 PM CDT
Length of Visible Light 14h 50m
Length of Day
13h 55m
Tomorrow will be 1m 29s shorter.
Waxing Crescent, 3% of the Moon is Illuminated
Today
Waxing Crescent
Aug 3
First Quarter
Aug 10
Full
Aug 17
Last Quarter
Aug 25
New

Today's Extremes

State Highs State Lows

Community

WunderPhotos

Upload Photos

1,738,486 photos uploaded!

Nearby

Snow Depth

Station Depth Elevation
No new snow has been reported.

Earthquake Activity

City Distance Mag. Time & Date
No recent earthquake activity has been reported nearby.
Minimum magnitude displayed is 2.5.

Coastal Water Temperatures

Place Temperature
No Stations Reporting

Nearby Weather Stations

Station Location Temp. Heat Index Dew Point Humidity Wind Precip. Elev Updated Type
Hokes Bluff, Hokes Bluff, AL 89.4 °F 126 °F 89 °F 98% West  at  3.7 mph - / hr 574 ft 3:15 PM CDT Normal
Angel Community, Jacksonville, AL 88.5 °F 90 °F 65 °F 46% North  at  0.0 mph 0.00 in / hr 629 ft 3:15 PM CDT Rapid Fire
RAWS MT. LONGLEAF AL, Fort McClellan, AL 90 °F 89 °F 58 °F 34% NW  at  8 mph 0.00 in / hr 1049 ft 2:46 PM CDT MADIS
Choccolocco Community, Anniston, AL 90.0 °F 86 °F 36 °F 15% WSW  at  5.4 mph 0.00 in / hr 865 ft 3:15 PM CDT Rapid Fire
The Ridges, Cedar Bluff, AL 88.3 °F 85 °F 38 °F 17% NW  at  10.1 mph 0.00 in / hr 639 ft 3:10 PM CDT Normal
Highlands of Rome, Rome, GA 87.0 °F 89 °F 66 °F 50% East  at  2.0 mph 0.00 in / hr 665 ft 4:13 PM EDT Normal
Lindale, Lindale, GA 87.3 °F 89 °F 64 °F 46% West  at  4.0 mph 0.00 in / hr 907 ft 4:15 PM EDT Rapid Fire

Show More Stations Show Fewer Stations